createdAt,value
2018-03-11T00:02:06.440Z,19.30
2018-03-11T00:04:34.016Z,16.40
2018-03-11T00:07:01.700Z,18.53
2018-03-11T00:09:29.289Z,17.97
2018-03-11T00:11:56.856Z,17.80
2018-03-11T00:14:24.420Z,17.07
2018-03-11T00:16:52.000Z,18.37
2018-03-11T00:19:20.337Z,16.37
2018-03-11T00:21:47.901Z,18.17
2018-03-11T00:24:15.500Z,15.93
2018-03-11T00:26:43.861Z,16.67
2018-03-11T00:29:12.187Z,16.43
2018-03-11T00:31:39.851Z,16.90
2018-03-11T00:34:07.452Z,16.97
2018-03-11T00:36:35.024Z,18.90
2018-03-11T00:39:03.943Z,17.53
2018-03-11T00:41:31.529Z,20.80
2018-03-11T00:43:59.239Z,20.83
2018-03-11T00:46:26.897Z,19.43
2018-03-11T00:48:55.280Z,21.00
2018-03-11T00:51:23.684Z,18.80
2018-03-11T00:53:51.348Z,17.83
2018-03-11T00:56:19.024Z,19.03
2018-03-11T00:58:46.670Z,20.00
2018-03-11T01:01:14.265Z,18.10
2018-03-11T01:03:41.896Z,19.33
2018-03-11T01:06:09.517Z,19.17
2018-03-11T01:08:37.108Z,20.10
2018-03-11T01:11:04.767Z,20.00
2018-03-11T01:13:32.332Z,19.20
2018-03-11T01:15:59.899Z,19.10
2018-03-11T01:18:27.529Z,18.10
2018-03-11T01:20:56.024Z,18.87
2018-03-11T01:23:23.664Z,20.17
2018-03-11T01:25:52.094Z,18.00
2018-03-11T01:28:19.700Z,20.03
2018-03-11T01:30:47.374Z,20.27
2018-03-11T01:33:15.129Z,21.73
2018-03-11T01:35:42.800Z,19.70
2018-03-11T01:38:10.419Z,20.23
2018-03-11T01:40:38.100Z,19.23
2018-03-11T01:43:05.668Z,20.77
2018-03-11T01:45:33.263Z,20.07
2018-03-11T01:48:00.977Z,22.03
2018-03-11T01:50:28.535Z,21.90
2018-03-11T01:53:07.996Z,19.80
2018-03-11T01:55:35.598Z,19.87
2018-03-11T01:58:03.285Z,23.27
2018-03-11T02:00:30.964Z,20.27
2018-03-11T02:02:59.309Z,21.93
2018-03-11T02:05:26.969Z,22.77
2018-03-11T02:07:54.581Z,22.50
2018-03-11T02:10:22.320Z,25.13
2018-03-11T02:12:49.930Z,24.40
2018-03-11T02:15:18.363Z,21.00
2018-03-11T02:17:46.067Z,22.70
2018-03-11T02:20:14.454Z,21.67
2018-03-11T02:22:42.798Z,22.63
2018-03-11T02:25:10.360Z,23.20
2018-03-11T02:27:37.941Z,20.13
2018-03-11T02:30:06.273Z,21.60
2018-03-11T02:32:33.868Z,24.07
2018-03-11T02:35:01.440Z,22.60
2018-03-11T02:37:29.763Z,23.23
2018-03-11T02:39:57.332Z,23.47
2018-03-11T02:42:24.919Z,22.10
2018-03-11T02:44:52.484Z,25.80
2018-03-11T02:47:20.086Z,23.87
2018-03-11T02:49:47.636Z,22.80
2018-03-11T02:52:15.223Z,23.80
2018-03-11T02:54:42.791Z,23.93
2018-03-11T02:57:10.341Z,23.13
2018-03-11T02:59:37.922Z,24.13
2018-03-11T03:02:05.477Z,21.87
2018-03-11T03:04:33.047Z,24.47
2018-03-11T03:07:00.613Z,21.43
2018-03-11T03:09:28.208Z,22.70
2018-03-11T03:11:56.524Z,23.23
2018-03-11T03:14:24.098Z,23.50
2018-03-11T03:16:51.696Z,22.63
2018-03-11T03:19:20.019Z,23.43
2018-03-11T03:21:47.580Z,24.40
2018-03-11T03:24:15.161Z,22.33
2018-03-11T03:26:42.744Z,20.10
2018-03-11T03:29:10.321Z,21.30
2018-03-11T03:31:38.640Z,22.10
2018-03-11T03:34:06.221Z,22.37
2018-03-11T03:36:33.806Z,20.07
2018-03-11T03:39:02.156Z,22.27
2018-03-11T03:41:29.748Z,21.13
2018-03-11T03:43:58.068Z,20.07
2018-03-11T03:46:25.632Z,22.27
2018-03-11T03:48:53.208Z,24.17
2018-03-11T03:51:21.534Z,21.53
2018-03-11T03:53:49.116Z,22.03
2018-03-11T03:56:16.690Z,21.57
2018-03-11T03:58:44.268Z,22.50
2018-03-11T04:01:11.841Z,21.20
2018-03-11T04:03:39.425Z,21.27
2018-03-11T04:06:07.745Z,24.60
2018-03-11T04:08:35.336Z,23.10
2018-03-11T04:11:02.912Z,26.07
2018-03-11T04:13:30.477Z,21.30
2018-03-11T04:15:58.828Z,24.67
2018-03-11T04:18:26.391Z,26.20
2018-03-11T04:20:53.977Z,21.73
2018-03-11T04:23:22.300Z,27.07
2018-03-11T04:25:49.897Z,22.60
2018-03-11T04:28:17.455Z,22.90
2018-03-11T04:30:45.014Z,21.20
2018-03-11T04:33:12.617Z,23.73
2018-03-11T04:35:40.172Z,21.27
2018-03-11T04:38:07.736Z,23.00
2018-03-11T04:40:35.313Z,22.90
2018-03-11T04:43:02.860Z,22.30
2018-03-11T04:45:30.435Z,21.80
2018-03-11T04:47:57.992Z,21.67
2018-03-11T04:50:25.555Z,20.00
2018-03-11T04:52:53.152Z,20.80
2018-03-11T04:55:20.732Z,21.90
2018-03-11T04:57:49.056Z,22.70
2018-03-11T05:00:16.632Z,24.13
2018-03-11T05:02:44.220Z,25.27
2018-03-11T05:05:11.784Z,24.47
2018-03-11T05:07:39.384Z,27.20
2018-03-11T05:10:06.948Z,26.07
2018-03-11T05:12:34.500Z,28.23
2018-03-11T05:15:02.077Z,25.13
2018-03-11T05:17:29.634Z,24.10
2018-03-11T05:19:57.226Z,24.00
2018-03-11T05:22:24.780Z,20.07
2018-03-11T05:24:52.340Z,27.50
2018-03-11T05:27:19.924Z,22.80
2018-03-11T05:29:48.432Z,21.10
2018-03-11T05:32:16.156Z,23.93
2018-03-11T05:34:43.724Z,24.90
2018-03-11T05:37:11.306Z,22.30
2018-03-11T05:39:38.902Z,26.70
2018-03-11T05:42:06.480Z,26.73
2018-03-11T05:44:34.053Z,24.13
2018-03-11T05:47:01.657Z,26.97
2018-03-11T05:49:29.981Z,27.27
2018-03-11T05:51:57.556Z,26.57
2018-03-11T05:54:25.150Z,23.60
2018-03-11T05:56:53.484Z,21.20
2018-03-11T05:59:21.064Z,23.10
2018-03-11T06:01:48.708Z,22.20
2018-03-11T06:04:16.265Z,22.00
2018-03-11T06:06:43.824Z,21.30
2018-03-11T06:09:11.416Z,21.53
2018-03-11T06:11:38.973Z,21.70
2018-03-11T06:14:06.534Z,20.50
2018-03-11T06:16:34.113Z,26.20
2018-03-11T06:19:02.441Z,21.90
2018-03-11T06:21:30.030Z,21.47
2018-03-11T06:23:57.616Z,29.07
2018-03-11T06:26:25.936Z,19.70
2018-03-11T06:28:53.516Z,21.40
2018-03-11T06:31:21.842Z,19.37
2018-03-11T06:33:49.397Z,20.23
2018-03-11T06:36:17.740Z,18.70
2018-03-11T06:38:45.308Z,20.17
2018-03-11T06:41:12.892Z,18.47
2018-03-11T06:43:41.245Z,22.17
2018-03-11T06:46:08.821Z,18.83
2018-03-11T06:48:37.145Z,20.27
2018-03-11T06:51:04.728Z,19.07
2018-03-11T06:53:32.300Z,16.87
2018-03-11T06:55:59.861Z,15.37
2018-03-11T06:58:27.437Z,14.33
2018-03-11T07:00:54.984Z,17.07
2018-03-11T07:03:22.565Z,18.27
2018-03-11T07:05:50.121Z,19.13
2018-03-11T07:08:17.674Z,21.73
2018-03-11T07:10:45.249Z,21.20
2018-03-11T07:13:12.816Z,20.77
2018-03-11T07:15:41.156Z,22.60
2018-03-11T07:18:08.721Z,21.80
2018-03-11T07:20:36.300Z,22.57
2018-03-11T07:23:03.863Z,24.80
2018-03-11T07:25:31.453Z,23.60
2018-03-11T07:27:59.014Z,23.43
2018-03-11T07:30:26.598Z,24.33
2018-03-11T07:32:54.158Z,25.47
2018-03-11T07:35:21.740Z,25.77
2018-03-11T07:37:49.328Z,26.37
2018-03-11T07:40:17.644Z,26.23
2018-03-11T07:42:45.199Z,25.27
2018-03-11T07:45:12.769Z,25.57
2018-03-11T07:47:40.342Z,26.00
2018-03-11T07:50:07.908Z,26.00
2018-03-11T07:52:35.476Z,27.10
2018-03-11T07:55:03.029Z,23.97
2018-03-11T07:57:30.601Z,24.67
2018-03-11T07:59:58.166Z,24.00
2018-03-11T08:02:25.752Z,24.97
2018-03-11T08:04:54.068Z,26.03
2018-03-11T08:07:21.630Z,24.43
2018-03-11T08:09:49.209Z,25.27
2018-03-11T08:12:16.781Z,23.17
2018-03-11T08:14:44.352Z,26.03
2018-03-11T08:17:11.930Z,25.40
2018-03-11T08:19:40.328Z,24.47
2018-03-11T08:22:07.885Z,26.60
2018-03-11T08:24:35.460Z,26.20
2018-03-11T08:27:03.040Z,24.40
2018-03-11T08:29:30.694Z,27.20
2018-03-11T08:31:58.256Z,25.80
2018-03-11T08:34:25.835Z,23.77
2018-03-11T08:36:53.413Z,24.30
2018-03-11T08:39:20.992Z,24.50
2018-03-11T08:41:49.411Z,21.93
2018-03-11T08:44:16.970Z,22.43
2018-03-11T08:46:44.544Z,20.93
2018-03-11T08:49:12.118Z,21.27
2018-03-11T08:51:39.686Z,22.23
2018-03-11T08:54:07.270Z,24.13
2018-03-11T08:56:35.616Z,68.63
2018-03-11T08:59:03.176Z,36.53
2018-03-11T09:01:30.761Z,73.07
2018-03-11T09:03:58.314Z,21.33
2018-03-11T09:08:59.944Z,46.53
2018-03-11T09:11:27.510Z,29.57
2018-03-11T09:13:55.088Z,27.27
2018-03-11T09:16:22.658Z,23.30
2018-03-11T09:18:50.212Z,23.53
2018-03-11T09:21:17.793Z,29.97
2018-03-11T09:23:46.117Z,93.50
2018-03-11T09:26:13.748Z,41.17
2018-03-11T09:28:42.065Z,22.33
2018-03-11T09:31:09.653Z,26.50
2018-03-11T09:33:42.042Z,24.40
2018-03-11T09:36:10.399Z,21.17
2018-03-11T09:38:37.981Z,21.77
2018-03-11T09:41:06.328Z,21.63
2018-03-11T09:43:33.885Z,17.63
2018-03-11T09:46:01.474Z,16.73
2018-03-11T09:48:29.036Z,13.90
2018-03-11T09:50:56.597Z,15.87
2018-03-11T09:53:24.182Z,12.87
2018-03-11T09:55:51.746Z,14.03
2018-03-11T09:58:19.336Z,15.00
2018-03-11T10:00:46.900Z,12.00
2018-03-11T10:03:14.460Z,12.40
2018-03-11T10:05:42.038Z,12.90
2018-03-11T10:08:09.588Z,12.10
2018-03-11T10:10:37.164Z,12.07
2018-03-11T10:13:04.736Z,11.10
2018-03-11T10:15:32.296Z,12.17
2018-03-11T10:17:59.872Z,12.30
2018-03-11T10:20:28.193Z,12.20
2018-03-11T10:22:55.804Z,13.23
2018-03-11T10:25:24.136Z,12.30
2018-03-11T11:49:48.904Z,10.17
2018-03-11T11:52:16.460Z,10.93
2018-03-11T11:54:44.008Z,9.90
2018-03-11T11:57:11.594Z,8.33
2018-03-11T11:59:39.139Z,8.30
2018-03-11T12:02:06.712Z,8.40
2018-03-11T12:04:34.290Z,9.40
2018-03-11T12:07:01.874Z,9.00
2018-03-11T12:09:29.453Z,7.80
2018-03-11T12:11:57.066Z,9.37
2018-03-11T12:14:24.663Z,10.00
2018-03-11T12:16:52.247Z,9.43
2018-03-11T12:19:19.829Z,10.57
2018-03-11T12:21:47.380Z,10.80
2018-03-11T12:24:14.940Z,11.93
2018-03-11T12:26:42.539Z,11.83
2018-03-11T12:29:10.130Z,11.87
2018-03-11T12:31:37.689Z,12.00
2018-03-11T12:34:05.249Z,11.70
2018-03-11T12:36:32.847Z,9.93
2018-03-11T12:39:00.407Z,48.23
2018-03-11T12:41:27.959Z,9.83
2018-03-11T12:43:55.528Z,9.20
2018-03-11T12:46:23.100Z,8.97
2018-03-11T12:48:50.690Z,8.80
2018-03-11T12:51:18.258Z,8.77
2018-03-11T12:53:45.861Z,9.73
2018-03-11T12:56:13.444Z,8.53
2018-03-11T12:58:41.866Z,9.17
2018-03-11T13:01:09.386Z,10.10
2018-03-11T13:03:37.688Z,13.73
2018-03-11T13:06:05.220Z,9.67
2018-03-11T13:08:33.503Z,11.27
2018-03-11T13:11:01.797Z,9.60
2018-03-11T13:13:29.319Z,11.07
2018-03-11T13:15:56.830Z,10.17
2018-03-11T13:18:24.374Z,15.80
2018-03-11T13:21:03.947Z,11.33
2018-03-11T13:23:31.474Z,10.97
2018-03-11T13:25:59.042Z,10.37
2018-03-11T13:28:38.324Z,11.27
2018-03-11T13:31:05.906Z,10.50
2018-03-11T13:33:46.200Z,11.20
2018-03-11T13:36:13.747Z,11.37
2018-03-11T13:38:53.083Z,12.30
2018-03-11T13:41:20.654Z,11.00
2018-03-11T13:43:48.197Z,11.50
2018-03-11T13:46:27.641Z,11.27
2018-03-11T13:48:55.180Z,12.40
2018-03-11T13:51:35.463Z,12.43
2018-03-11T13:54:03.006Z,11.67
2018-03-11T13:56:31.287Z,11.43
2018-03-11T13:58:58.822Z,10.23
2018-03-11T14:01:26.361Z,11.70
2018-03-11T14:03:53.943Z,11.27
2018-03-11T14:06:21.519Z,12.33
2018-03-11T14:08:49.868Z,12.37
2018-03-11T14:11:17.436Z,11.97
2018-03-11T14:13:45.027Z,11.30
2018-03-11T14:16:12.581Z,11.67
2018-03-11T14:18:40.131Z,11.20
2018-03-11T14:21:08.474Z,15.17
2018-03-11T14:23:36.046Z,12.40
2018-03-11T14:26:03.616Z,12.23
2018-03-11T14:28:31.192Z,17.70
2018-03-11T14:30:59.544Z,12.07
2018-03-11T14:33:27.865Z,13.60
2018-03-11T14:35:55.418Z,13.17
2018-03-11T14:38:23.031Z,15.00
2018-03-11T14:40:50.644Z,12.43
2018-03-11T14:43:18.331Z,12.97
2018-03-11T14:45:45.889Z,13.60
2018-03-11T14:48:13.559Z,15.03
2018-03-11T14:50:41.148Z,16.20
2018-03-11T14:53:08.739Z,16.90
2018-03-11T14:55:37.052Z,18.70
2018-03-11T14:58:04.612Z,17.17
2018-03-11T15:00:32.208Z,18.77
2018-03-11T15:03:01.269Z,18.53
2018-03-11T15:05:28.819Z,19.30
2018-03-11T15:07:56.397Z,21.27
2018-03-11T15:10:23.962Z,21.33
2018-03-11T15:12:51.513Z,24.10
2018-03-11T15:15:19.098Z,20.90
2018-03-11T15:17:46.645Z,21.23
2018-03-11T15:20:14.201Z,22.67
2018-03-11T15:22:41.792Z,20.37
2018-03-11T15:25:10.160Z,20.40
2018-03-11T15:27:37.762Z,20.80
2018-03-11T15:30:06.217Z,22.30
2018-03-11T15:32:34.736Z,21.70
2018-03-11T15:35:02.391Z,20.40
2018-03-11T15:37:29.984Z,21.70
2018-03-11T15:39:57.604Z,21.93
2018-03-11T15:42:25.959Z,19.03
2018-03-11T15:44:54.384Z,20.80
2018-03-11T15:47:22.024Z,22.80
2018-03-11T15:49:49.699Z,22.40
2018-03-11T15:52:17.305Z,21.07
2018-03-11T15:54:45.000Z,22.67
2018-03-11T15:57:12.617Z,24.20
2018-03-11T15:59:40.247Z,23.80
2018-03-11T16:02:07.933Z,26.03
2018-03-11T16:04:35.480Z,25.40
2018-03-11T16:07:03.072Z,25.60
2018-03-11T16:09:30.872Z,25.20
2018-03-11T16:11:58.557Z,26.37
2018-03-11T16:14:26.123Z,29.27
2018-03-11T16:16:53.826Z,26.47
2018-03-11T16:19:21.414Z,27.67
2018-03-11T16:21:49.751Z,26.93
2018-03-11T16:24:28.280Z,30.87
2018-03-11T16:29:19.590Z,30.13
2018-03-11T16:31:47.202Z,26.33
2018-03-11T16:34:15.618Z,29.00
2018-03-11T16:36:43.196Z,31.73
2018-03-11T16:39:10.763Z,30.37
2018-03-11T16:41:38.345Z,27.27
2018-03-11T16:44:05.985Z,28.93
2018-03-11T16:46:33.573Z,29.00
2018-03-11T16:49:01.917Z,27.43
2018-03-11T16:51:29.515Z,27.97
2018-03-11T16:53:57.835Z,31.70
2018-03-11T16:56:25.393Z,28.43
2018-03-11T16:58:52.963Z,29.67
2018-03-11T17:01:20.516Z,29.97
2018-03-11T17:03:48.104Z,30.97
2018-03-11T17:06:15.665Z,29.77
2018-03-11T17:08:43.228Z,26.63
2018-03-11T17:11:10.807Z,29.50
2018-03-11T17:13:39.180Z,26.33
2018-03-11T17:16:06.728Z,26.10
2018-03-11T17:18:34.284Z,26.43
2018-03-11T17:21:01.932Z,26.33
2018-03-11T17:23:29.497Z,24.27
2018-03-11T17:25:57.057Z,26.20
2018-03-11T17:28:24.632Z,30.80
2018-03-11T17:30:53.746Z,21.77
2018-03-11T17:33:22.168Z,23.83
2018-03-11T17:35:49.860Z,23.30
2018-03-11T17:38:18.928Z,24.27
2018-03-11T17:40:46.481Z,25.50
2018-03-11T17:43:14.075Z,24.50
2018-03-11T17:45:41.706Z,27.40
2018-03-11T17:48:09.263Z,25.13
2018-03-11T17:50:36.860Z,24.07
2018-03-11T17:53:04.452Z,23.93
2018-03-11T17:55:32.812Z,22.67
2018-03-11T17:58:00.380Z,20.83
2018-03-11T18:00:28.720Z,23.77
2018-03-11T18:02:56.300Z,25.77
2018-03-11T18:05:23.873Z,30.17
2018-03-11T18:07:51.485Z,33.57
2018-03-11T18:10:19.040Z,27.77
2018-03-11T18:12:46.631Z,26.13
2018-03-11T18:15:14.204Z,26.30
2018-03-11T18:17:41.795Z,23.90
2018-03-11T18:20:10.122Z,23.33
2018-03-11T18:22:37.682Z,30.80
2018-03-11T18:25:05.271Z,28.63
2018-03-11T18:27:32.826Z,22.43
2018-03-11T18:30:00.442Z,24.90
2018-03-11T18:32:27.997Z,20.60
2018-03-11T18:34:55.557Z,21.00
2018-03-11T18:37:23.139Z,21.83
2018-03-11T18:39:50.704Z,21.43
2018-03-11T18:42:18.280Z,22.00
2018-03-11T18:44:45.832Z,19.20
2018-03-11T18:47:13.424Z,23.63
2018-03-11T18:49:41.740Z,23.40
2018-03-11T18:52:09.328Z,24.80
2018-03-11T18:54:36.912Z,22.27
2018-03-11T18:57:05.287Z,21.03
2018-03-11T18:59:32.812Z,21.17
2018-03-11T19:02:00.396Z,20.57
2018-03-11T19:04:27.953Z,21.80
2018-03-11T19:06:55.558Z,21.80
2018-03-11T19:09:23.156Z,23.93
2018-03-11T19:11:51.568Z,22.30
2018-03-11T19:14:19.899Z,23.00
2018-03-11T19:16:47.472Z,21.53
2018-03-11T19:19:15.052Z,21.03
2018-03-11T19:21:42.612Z,22.40
2018-03-11T19:24:10.173Z,21.30
2018-03-11T19:26:37.756Z,22.00
2018-03-11T19:29:06.082Z,24.13
2018-03-11T19:31:33.689Z,23.40
2018-03-11T19:34:02.015Z,22.53
2018-03-11T19:36:29.594Z,21.63
2018-03-11T19:38:57.177Z,22.20
2018-03-11T19:41:24.736Z,26.43
2018-03-11T19:43:52.313Z,24.17
2018-03-11T19:46:20.655Z,22.17
2018-03-11T19:48:48.210Z,36.97
2018-03-11T19:51:15.828Z,151.93
2018-03-11T19:53:43.416Z,311.40
2018-03-11T19:56:10.997Z,52.50
2018-03-11T19:58:38.569Z,33.03
2018-03-11T20:01:06.157Z,24.50
2018-03-11T20:03:34.516Z,25.60
2018-03-11T20:06:02.081Z,23.57
2018-03-11T20:08:30.409Z,24.83
2018-03-11T20:10:58.001Z,24.30
2018-03-11T20:13:25.659Z,52.80
2018-03-11T20:15:54.037Z,117.20
2018-03-11T20:18:21.629Z,120.80
2018-03-11T20:20:49.962Z,107.53
2018-03-11T20:23:18.309Z,43.37
2018-03-11T20:25:45.894Z,29.60
2018-03-11T20:28:13.471Z,31.90
2018-03-11T20:30:41.080Z,29.00
2018-03-11T20:33:08.656Z,28.20
2018-03-11T20:35:36.415Z,31.43
2018-03-11T20:38:04.173Z,31.70
2018-03-11T20:40:31.793Z,40.70
2018-03-11T20:42:59.435Z,32.03
2018-03-11T20:45:27.068Z,40.30
2018-03-11T20:47:54.749Z,36.17
2018-03-11T20:50:22.358Z,48.97
2018-03-11T20:52:50.145Z,98.23
2018-03-11T20:55:17.901Z,60.73
2018-03-11T20:57:45.559Z,68.77
2018-03-11T21:00:13.216Z,85.23
2018-03-11T21:02:41.573Z,76.27
2018-03-11T21:05:09.953Z,77.27
2018-03-11T21:07:37.562Z,82.13
2018-03-11T21:10:05.160Z,49.20
2018-03-11T21:12:32.739Z,50.90
2018-03-11T21:15:00.360Z,44.73
2018-03-11T21:17:27.912Z,34.17
2018-03-11T21:19:55.500Z,39.90
2018-03-11T21:22:23.845Z,37.60
2018-03-11T21:24:51.510Z,37.87
2018-03-11T21:27:19.070Z,31.73
2018-03-11T21:29:46.641Z,34.17
2018-03-11T21:32:18.126Z,37.00
2018-03-11T21:34:46.480Z,29.13
2018-03-11T21:37:14.077Z,30.67
2018-03-11T21:39:42.448Z,28.83
2018-03-11T21:42:10.014Z,26.77
2018-03-11T21:44:37.585Z,26.60
2018-03-11T21:47:05.168Z,27.27
2018-03-11T21:49:32.781Z,24.30
2018-03-11T21:52:01.198Z,23.90
2018-03-11T21:54:28.792Z,24.97
2018-03-11T21:56:56.388Z,28.30
2018-03-11T21:59:24.014Z,27.90
2018-03-11T22:01:51.646Z,30.23
2018-03-11T22:04:19.257Z,27.60
2018-03-11T22:06:46.821Z,25.60
2018-03-11T22:09:14.381Z,22.50
2018-03-11T22:11:42.066Z,23.20
2018-03-11T22:14:09.661Z,20.80
2018-03-11T22:16:37.265Z,23.90
2018-03-11T22:19:04.898Z,25.30
2018-03-11T22:21:32.530Z,23.20
2018-03-11T22:24:00.192Z,25.10
2018-03-11T22:26:27.812Z,26.83
2018-03-11T22:28:55.478Z,25.23
2018-03-11T22:31:26.798Z,30.70
2018-03-11T22:33:54.429Z,29.27
2018-03-11T22:36:22.039Z,33.43
2018-03-11T22:38:49.739Z,29.40
2018-03-11T22:41:18.088Z,31.60
2018-03-11T22:43:45.697Z,25.43
2018-03-11T22:46:13.333Z,26.03
2018-03-11T22:48:41.660Z,27.90
2018-03-11T22:51:09.258Z,27.80
2018-03-11T22:53:37.594Z,24.67
2018-03-11T22:56:05.214Z,26.43
2018-03-11T22:58:33.565Z,24.07
2018-03-11T23:01:01.123Z,24.40
2018-03-11T23:03:28.704Z,26.67
2018-03-11T23:05:57.082Z,25.53
2018-03-11T23:08:24.701Z,25.20
2018-03-11T23:10:52.283Z,28.40
2018-03-11T23:13:19.922Z,28.30
2018-03-11T23:15:47.472Z,25.80
2018-03-11T23:18:15.125Z,28.60
2018-03-11T23:20:42.686Z,26.37
2018-03-11T23:23:10.260Z,31.30
2018-03-11T23:25:37.839Z,24.10
2018-03-11T23:28:05.429Z,26.00
2018-03-11T23:30:33.824Z,25.20
2018-03-11T23:33:02.145Z,25.70
2018-03-11T23:35:29.702Z,29.00
2018-03-11T23:37:57.282Z,29.47
2018-03-11T23:40:24.838Z,26.40
2018-03-11T23:42:52.437Z,27.03
2018-03-11T23:45:20.759Z,24.23
2018-03-11T23:47:48.314Z,25.30
2018-03-11T23:50:15.890Z,25.67
2018-03-11T23:52:43.446Z,29.50
2018-03-11T23:55:11.019Z,26.07
2018-03-11T23:57:38.581Z,32.60
